Pagina principală
METAR-TAF:

METAR-TAF

Aeroporturi :

Nowra, Australia

Latitudine: 34-57S, longitudine: 150-32E, elevație: 122 m

Observații meteo curente

Raportul a fost făcut în urmă cu 51 de minute, la 10:00 UTC
Vânt 7 kt de la Sud
Temperatură 13°C
Umiditate 94%
Presiune 1024 hPa
Vizibilitate de 10 km sau mai mult
nu există nori sub 1.500 m și nici cumulonimbus

METAR: YSNW 261000Z 17007KT CAVOK 13/12 Q1024 TEMPO 1200/1300 3000 SHRA +DZ BKN010

Ora: 20:51 (10:51 UTC)


TAF: lipsă

Observații și prognoze meteo pentru peste 4.000 de aeroporturi (rapoarte METAR și TAF).

Stațiile disponibile sunt reprezentate pe hartă prin puncte galbene și roșii.

Țineți indicatorul mouse-ului pe punctul dorit pentru a vedea denumirea stației.

Apoi, faceți clic pentru a vedea observațiile și prognozele meteorologice.

Pentru a schimba harta: Pentru mărire, faceți clic pe butoanele verzi cu cruce neagră; pentru micșorare, pe butonul verde cu o liniuță; pentru hărți învecinate, pe săgețile verzi.


METAR-TAF: